createdAt,value
2023-02-25T00:01:24.220Z,20.80
2023-02-25T00:03:57.641Z,19.30
2023-02-25T00:06:25.480Z,25.17
2023-02-25T00:08:52.927Z,21.93
2023-02-25T00:11:21.259Z,20.73
2023-02-25T00:13:48.432Z,18.30
2023-02-25T00:16:16.444Z,24.07
2023-02-25T00:18:46.933Z,18.03
2023-02-25T00:21:15.956Z,22.57
2023-02-25T00:23:45.547Z,23.87
2023-02-25T00:26:13.255Z,25.83
2023-02-25T00:28:41.642Z,23.93
2023-02-25T00:31:13.993Z,21.97
2023-02-25T00:33:42.311Z,23.73
2023-02-25T00:36:11.684Z,21.23
2023-02-25T00:38:38.705Z,21.40
2023-02-25T00:41:13.584Z,19.80
2023-02-25T00:43:42.328Z,23.17
2023-02-25T00:46:12.415Z,20.83
2023-02-25T00:48:40.176Z,17.97
2023-02-25T00:51:13.297Z,16.93
2023-02-25T00:53:41.422Z,16.13
2023-02-25T00:56:11.214Z,17.90
2023-02-25T00:58:39.409Z,16.07
2023-02-25T01:01:16.691Z,17.77
2023-02-25T01:03:44.745Z,14.67
2023-02-25T01:06:13.264Z,18.27
2023-02-25T01:08:40.642Z,17.90
2023-02-25T01:11:27.125Z,14.03
2023-02-25T01:13:57.364Z,14.43
2023-02-25T01:16:26.731Z,13.70
2023-02-25T01:18:59.330Z,13.87
2023-02-25T01:21:30.424Z,15.83
2023-02-25T01:24:03.479Z,14.47
2023-02-25T01:26:33.332Z,14.37
2023-02-25T01:29:00.362Z,19.53
2023-02-25T01:31:31.683Z,20.97
2023-02-25T01:34:00.941Z,19.53
2023-02-25T01:36:29.823Z,15.00
2023-02-25T01:38:56.825Z,17.27
2023-02-25T01:41:25.477Z,16.13
2023-02-25T01:44:06.178Z,19.83
2023-02-25T01:46:33.494Z,18.57
2023-02-25T01:49:03.349Z,18.13
2023-02-25T01:51:33.004Z,16.20
2023-02-25T01:54:02.997Z,21.00
2023-02-25T01:56:31.522Z,15.57
2023-02-25T01:58:59.870Z,18.07
2023-02-25T02:01:31.743Z,17.20
2023-02-25T02:03:58.736Z,13.63
2023-02-25T02:06:35.997Z,18.13
2023-02-25T02:09:07.196Z,17.63
2023-02-25T02:11:35.356Z,16.83
2023-02-25T02:14:04.057Z,16.10
2023-02-25T02:16:40.006Z,18.50
2023-02-25T02:19:33.922Z,15.93
2023-02-25T02:22:18.742Z,14.47
2023-02-25T02:25:24.388Z,17.37
2023-02-25T02:28:00.351Z,19.47
2023-02-25T02:30:35.884Z,16.40
2023-02-25T02:33:14.887Z,16.43
2023-02-25T02:35:51.253Z,15.53
2023-02-25T02:38:18.026Z,15.93
2023-02-25T02:41:19.375Z,15.90
2023-02-25T02:44:22.509Z,18.60
2023-02-25T02:46:54.716Z,16.03
2023-02-25T02:49:27.034Z,20.70
2023-02-25T02:52:00.629Z,15.87
2023-02-25T02:54:32.587Z,17.63
2023-02-25T02:57:02.225Z,19.43
2023-02-25T02:59:53.983Z,17.83
2023-02-25T03:02:35.738Z,18.13
2023-02-25T03:05:10.959Z,15.73
2023-02-25T03:07:43.291Z,15.33
2023-02-25T03:10:15.343Z,17.37
2023-02-25T03:12:42.311Z,17.77
2023-02-25T03:15:09.663Z,15.20
2023-02-25T03:17:53.880Z,18.70
2023-02-25T03:20:46.806Z,14.87
2023-02-25T03:23:24.013Z,12.63
2023-02-25T03:26:02.778Z,14.77
2023-02-25T03:28:31.984Z,12.77
2023-02-25T03:31:06.616Z,16.17
2023-02-25T03:33:47.993Z,15.00
2023-02-25T03:36:43.964Z,16.50
2023-02-25T03:39:20.500Z,14.30
2023-02-25T03:41:52.431Z,15.47
2023-02-25T03:44:55.157Z,14.23
2023-02-25T03:47:24.382Z,15.63
2023-02-25T03:49:59.737Z,16.60
2023-02-25T03:52:27.724Z,14.63
2023-02-25T03:54:57.403Z,13.27
2023-02-25T03:57:27.636Z,11.97
2023-02-25T03:59:56.551Z,12.80
2023-02-25T04:02:33.171Z,12.57
2023-02-25T04:05:00.375Z,12.87
2023-02-25T04:07:27.444Z,9.23
2023-02-25T04:09:54.396Z,12.17
2023-02-25T04:12:21.268Z,12.00
2023-02-25T04:14:48.158Z,8.90
2023-02-25T04:17:15.262Z,11.30
2023-02-25T04:19:42.184Z,12.70
2023-02-25T04:22:11.124Z,9.97
2023-02-25T04:24:38.241Z,12.13
2023-02-25T04:27:05.349Z,11.30
2023-02-25T04:29:34.269Z,12.93
2023-02-25T04:32:01.420Z,10.37
2023-02-25T04:34:28.360Z,9.23
2023-02-25T04:36:56.435Z,11.47
2023-02-25T04:39:24.717Z,13.53
2023-02-25T04:41:51.656Z,13.53
2023-02-25T04:44:18.816Z,12.80
2023-02-25T04:46:46.109Z,12.10
2023-02-25T04:49:13.101Z,12.17
2023-02-25T04:51:46.709Z,12.20
2023-02-25T04:54:13.840Z,12.77
2023-02-25T04:56:41.298Z,12.03
2023-02-25T04:59:11.427Z,10.77
2023-02-25T05:01:39.626Z,11.57
2023-02-25T05:04:07.116Z,10.33
2023-02-25T05:06:34.822Z,11.47
2023-02-25T05:09:03.746Z,12.03
2023-02-25T05:11:31.017Z,11.23
2023-02-25T05:13:58.480Z,9.77
2023-02-25T05:16:26.204Z,10.50
2023-02-25T05:18:54.140Z,11.97
2023-02-25T05:21:24.515Z,10.03
2023-02-25T05:23:53.308Z,8.90
2023-02-25T05:26:23.653Z,10.50
2023-02-25T05:28:56.253Z,11.00
2023-02-25T05:31:26.137Z,9.73
2023-02-25T05:33:53.767Z,9.63
2023-02-25T05:36:23.956Z,10.40
2023-02-25T05:38:59.089Z,10.20
2023-02-25T05:41:26.726Z,11.13
2023-02-25T05:43:53.576Z,11.67
2023-02-25T05:46:23.190Z,11.60
2023-02-25T05:48:50.388Z,10.47
2023-02-25T05:51:20.602Z,11.00
2023-02-25T05:53:49.198Z,15.10
2023-02-25T05:56:19.282Z,11.20
2023-02-25T05:58:48.618Z,14.93
2023-02-25T06:01:22.742Z,16.53
2023-02-25T06:03:51.780Z,16.23
2023-02-25T06:06:24.621Z,14.00
2023-02-25T06:08:52.564Z,14.97
2023-02-25T06:11:29.562Z,15.07
2023-02-25T06:13:58.044Z,15.97
2023-02-25T06:16:31.959Z,15.30
2023-02-25T06:19:01.291Z,17.13
2023-02-25T06:21:28.505Z,16.17
2023-02-25T06:23:55.731Z,16.63
2023-02-25T06:26:23.543Z,21.30
2023-02-25T06:28:50.783Z,16.53
2023-02-25T06:31:19.507Z,17.13
2023-02-25T06:33:46.875Z,19.60
2023-02-25T06:36:14.290Z,16.80
2023-02-25T06:38:43.215Z,18.13
2023-02-25T06:41:15.591Z,17.97
2023-02-25T06:43:44.982Z,20.70
2023-02-25T06:46:14.489Z,18.00
2023-02-25T06:48:41.446Z,18.20
2023-02-25T06:51:10.644Z,22.27
2023-02-25T06:53:39.489Z,16.80
2023-02-25T06:56:08.427Z,19.53
2023-02-25T06:58:36.093Z,18.27
2023-02-25T07:01:07.373Z,21.80
2023-02-25T07:03:34.484Z,21.43
2023-02-25T07:06:01.945Z,20.93
2023-02-25T07:08:31.058Z,25.73
2023-02-25T07:11:13.400Z,20.93
2023-02-25T07:13:43.430Z,22.20
2023-02-25T07:16:12.521Z,22.07
2023-02-25T07:18:42.301Z,26.60
2023-02-25T07:21:09.786Z,26.70
2023-02-25T07:23:36.980Z,29.03
2023-02-25T07:26:08.693Z,26.60
2023-02-25T07:28:36.620Z,27.23
2023-02-25T07:31:09.415Z,28.70
2023-02-25T07:33:36.542Z,25.20
2023-02-25T07:36:03.536Z,26.93
2023-02-25T07:38:30.558Z,27.07
2023-02-25T07:40:57.457Z,23.00
2023-02-25T07:43:24.598Z,22.77
2023-02-25T07:45:51.776Z,22.10
2023-02-25T07:48:18.927Z,19.73
2023-02-25T07:50:46.886Z,20.60
2023-02-25T07:53:13.969Z,21.33
2023-02-25T07:55:44.811Z,19.50
2023-02-25T07:58:13.806Z,18.33
2023-02-25T08:00:41.235Z,21.13
2023-02-25T08:03:08.625Z,20.07
2023-02-25T08:05:36.788Z,27.23
2023-02-25T08:08:05.139Z,29.57
2023-02-25T08:10:32.688Z,31.23
2023-02-25T08:12:59.787Z,39.17
2023-02-25T08:15:26.788Z,37.27
2023-02-25T08:17:55.913Z,44.30
2023-02-25T08:20:24.362Z,40.67
2023-02-25T08:22:51.587Z,44.50
2023-02-25T08:25:19.640Z,34.97
2023-02-25T08:27:46.530Z,27.20
2023-02-25T08:30:15.197Z,18.43
2023-02-25T08:32:42.305Z,22.50
2023-02-25T08:35:10.022Z,18.17
2023-02-25T08:37:36.926Z,18.67
2023-02-25T08:40:09.978Z,17.67
2023-02-25T08:42:37.780Z,17.67
2023-02-25T08:45:05.748Z,17.30
2023-02-25T08:47:32.609Z,16.57
2023-02-25T08:50:00.717Z,16.83
2023-02-25T08:52:33.664Z,13.73
2023-02-25T08:55:04.801Z,19.00
2023-02-25T08:57:31.865Z,14.67
2023-02-25T08:59:59.049Z,14.93
2023-02-25T09:02:25.963Z,13.57
2023-02-25T09:04:53.013Z,14.40
2023-02-25T09:07:20.472Z,12.43
2023-02-25T09:09:47.687Z,11.37
2023-02-25T09:12:14.698Z,11.77
2023-02-25T09:14:41.715Z,8.80
2023-02-25T09:17:10.231Z,12.00
2023-02-25T09:19:38.952Z,13.33
2023-02-25T09:22:10.064Z,8.30
2023-02-25T09:24:37.093Z,10.17
2023-02-25T09:27:08.282Z,11.07
2023-02-25T09:29:38.765Z,10.33
2023-02-25T09:32:06.788Z,8.63
2023-02-25T09:34:34.206Z,9.10
2023-02-25T09:37:04.005Z,6.50
2023-02-25T09:39:31.336Z,8.07
2023-02-25T09:42:09.486Z,8.87
2023-02-25T09:44:47.080Z,5.37
2023-02-25T09:47:45.450Z,2.80
2023-02-25T09:50:21.664Z,4.20
2023-02-25T09:53:27.873Z,4.47
2023-02-25T09:55:55.033Z,3.53
2023-02-25T09:58:32.289Z,3.70
2023-02-25T10:01:04.564Z,2.80
2023-02-25T10:03:46.585Z,5.67
2023-02-25T10:06:43.658Z,6.03
2023-02-25T10:09:30.206Z,5.40
2023-02-25T10:12:14.489Z,5.07
2023-02-25T10:15:06.892Z,5.87
2023-02-25T10:17:46.623Z,9.23
2023-02-25T10:20:39.437Z,7.77
2023-02-25T10:23:23.628Z,8.67
2023-02-25T10:25:57.895Z,9.27
2023-02-25T10:28:25.163Z,8.90
2023-02-25T10:31:04.632Z,9.70
2023-02-25T10:33:38.401Z,9.17
2023-02-25T10:36:15.066Z,10.07
2023-02-25T10:38:50.839Z,7.50
2023-02-25T10:41:19.684Z,6.93
2023-02-25T10:43:46.570Z,6.47
2023-02-25T10:46:20.250Z,6.03
2023-02-25T10:48:56.445Z,6.03
2023-02-25T10:51:23.961Z,7.17
2023-02-25T10:53:57.056Z,6.67
2023-02-25T10:56:42.524Z,6.00
2023-02-25T10:59:48.109Z,7.03
2023-02-25T11:02:44.597Z,8.13
2023-02-25T11:05:31.543Z,5.67
2023-02-25T11:07:58.539Z,6.97
2023-02-25T11:10:25.571Z,8.73
2023-02-25T11:12:59.964Z,9.27
2023-02-25T11:15:43.567Z,5.63
2023-02-25T11:18:28.080Z,5.83
2023-02-25T11:20:57.798Z,9.77
2023-02-25T11:23:46.554Z,9.43
2023-02-25T11:26:29.193Z,7.93
2023-02-25T11:28:59.216Z,6.97
2023-02-25T11:31:33.387Z,10.00
2023-02-25T11:34:05.297Z,8.97
2023-02-25T11:36:37.996Z,5.60
2023-02-25T11:39:07.561Z,3.40
2023-02-25T11:41:34.612Z,4.63
2023-02-25T11:44:22.283Z,4.10
2023-02-25T11:47:06.073Z,3.53
2023-02-25T11:49:33.172Z,5.83
2023-02-25T11:52:18.459Z,5.67
2023-02-25T11:54:57.786Z,4.83
2023-02-25T11:58:03.578Z,4.70
2023-02-25T12:00:39.046Z,8.57
2023-02-25T12:03:25.627Z,5.43
2023-02-25T12:05:54.351Z,5.40
2023-02-25T12:08:21.188Z,4.33
2023-02-25T12:11:15.874Z,6.57
2023-02-25T12:14:10.871Z,7.17
2023-02-25T12:17:11.372Z,6.90
2023-02-25T12:20:25.696Z,6.27
2023-02-25T12:23:44.537Z,8.97
2023-02-25T12:26:32.257Z,6.83
2023-02-25T12:29:18.154Z,3.27
2023-02-25T12:31:58.132Z,6.43
2023-02-25T12:34:48.766Z,5.87
2023-02-25T12:37:43.522Z,5.63
2023-02-25T12:40:23.330Z,5.60
2023-02-25T12:43:08.183Z,5.13
2023-02-25T12:45:56.182Z,5.77
2023-02-25T12:48:51.586Z,5.53
2023-02-25T12:51:39.423Z,4.03
2023-02-25T12:54:48.918Z,4.80
2023-02-25T12:57:26.294Z,5.37
2023-02-25T13:00:17.071Z,5.30
2023-02-25T13:03:06.879Z,3.67
2023-02-25T13:06:27.486Z,2.53
2023-02-25T13:09:01.356Z,3.07
2023-02-25T13:12:10.673Z,2.70
2023-02-25T13:14:46.696Z,3.07
2023-02-25T13:17:30.755Z,4.30
2023-02-25T13:20:06.014Z,3.90
2023-02-25T13:22:33.020Z,5.00
2023-02-25T13:25:35.651Z,3.67
2023-02-25T13:28:43.577Z,1.73
2023-02-25T13:31:40.856Z,2.30
2023-02-25T13:34:26.434Z,4.87
2023-02-25T13:37:05.159Z,3.93
2023-02-25T13:40:00.053Z,7.73
2023-02-25T13:42:58.853Z,2.87
2023-02-25T13:46:03.620Z,3.60
2023-02-25T13:49:02.082Z,8.17
2023-02-25T13:51:38.693Z,21.07
2023-02-25T13:54:20.773Z,15.53
2023-02-25T13:57:01.642Z,9.40
2023-02-25T13:59:57.775Z,8.00
2023-02-25T14:02:36.599Z,3.27
2023-02-25T14:05:26.048Z,5.30
2023-02-25T14:08:30.318Z,3.20
2023-02-25T14:11:27.762Z,4.90
2023-02-25T14:14:24.900Z,4.57
2023-02-25T14:17:10.130Z,3.43
2023-02-25T14:19:54.001Z,4.53
2023-02-25T14:22:48.327Z,3.73
2023-02-25T14:25:19.524Z,5.93
2023-02-25T14:28:16.215Z,4.53
2023-02-25T14:31:01.408Z,4.23
2023-02-25T14:33:52.571Z,3.63
2023-02-25T14:36:38.324Z,2.97
2023-02-25T14:39:31.254Z,3.10
2023-02-25T14:42:36.372Z,11.97
2023-02-25T14:45:32.923Z,5.97
2023-02-25T14:48:10.653Z,14.73
2023-02-25T14:50:51.349Z,6.20
2023-02-25T14:53:42.127Z,5.67
2023-02-25T14:56:26.336Z,4.30
2023-02-25T14:59:05.135Z,4.97
2023-02-25T15:02:13.692Z,7.83
2023-02-25T15:05:36.594Z,4.80
2023-02-25T15:08:31.229Z,4.47
2023-02-25T15:11:32.037Z,4.30
2023-02-25T15:14:17.726Z,3.77
2023-02-25T15:19:58.586Z,4.43
2023-02-25T15:25:20.481Z,6.20
2023-02-25T15:27:51.318Z,8.57
2023-02-25T15:30:26.360Z,8.73
2023-02-25T15:33:07.824Z,7.10
2023-02-25T15:35:34.610Z,7.10
2023-02-25T15:38:02.330Z,8.77
2023-02-25T15:40:34.929Z,7.90
2023-02-25T15:43:14.543Z,6.37
2023-02-25T15:46:02.975Z,7.13
2023-02-25T15:48:33.066Z,7.50
2023-02-25T15:51:02.355Z,6.57
2023-02-25T15:53:29.763Z,9.87
2023-02-25T15:56:05.757Z,8.00
2023-02-25T15:58:32.578Z,6.47
2023-02-25T16:01:08.387Z,9.07
2023-02-25T16:03:36.427Z,7.57
2023-02-25T16:06:32.241Z,8.50
2023-02-25T16:09:13.934Z,8.50
2023-02-25T16:11:47.316Z,7.93
2023-02-25T16:14:31.358Z,7.70
2023-02-25T16:17:00.894Z,8.87
2023-02-25T16:19:36.082Z,10.23
2023-02-25T16:22:10.527Z,8.80
2023-02-25T16:24:37.754Z,13.97
2023-02-25T16:27:16.333Z,11.40
2023-02-25T16:30:11.546Z,12.87
2023-02-25T16:32:38.386Z,12.77
2023-02-25T16:35:18.390Z,10.83
2023-02-25T16:38:00.602Z,11.90
2023-02-25T16:40:39.799Z,12.93
2023-02-25T16:43:16.919Z,10.77
2023-02-25T16:45:56.013Z,12.20
2023-02-25T16:48:28.711Z,11.80
2023-02-25T16:50:56.449Z,11.67
2023-02-25T16:53:26.611Z,13.70
2023-02-25T16:56:02.539Z,10.03
2023-02-25T16:58:30.750Z,11.77
2023-02-25T17:01:03.836Z,11.20
2023-02-25T17:03:45.596Z,10.27
2023-02-25T17:06:20.216Z,12.77
2023-02-25T17:08:49.721Z,10.67
2023-02-25T17:11:19.687Z,14.90
2023-02-25T17:13:50.406Z,11.10
2023-02-25T17:16:29.802Z,9.17
2023-02-25T17:19:06.222Z,11.70
2023-02-25T17:21:37.240Z,9.33
2023-02-25T17:24:07.557Z,9.80
2023-02-25T17:26:39.802Z,12.93
2023-02-25T17:29:11.944Z,12.27
2023-02-25T17:31:48.496Z,14.73
2023-02-25T17:34:25.237Z,9.90
2023-02-25T17:36:54.228Z,13.80
2023-02-25T17:39:21.604Z,11.73
2023-02-25T17:41:49.271Z,9.50
2023-02-25T17:44:41.535Z,14.97
2023-02-25T17:47:12.037Z,17.40
2023-02-25T17:49:39.236Z,16.27
2023-02-25T17:52:15.136Z,17.13
2023-02-25T17:54:46.544Z,18.57
2023-02-25T17:57:19.228Z,11.17
2023-02-25T18:00:14.244Z,18.77
2023-02-25T18:02:44.644Z,21.33
2023-02-25T18:05:18.436Z,23.63
2023-02-25T18:08:09.261Z,15.40
2023-02-25T18:10:36.370Z,28.07
2023-02-25T18:13:05.603Z,22.13
2023-02-25T18:15:34.638Z,17.77
2023-02-25T18:18:07.645Z,11.53
2023-02-25T18:20:42.377Z,16.97
2023-02-25T18:23:19.240Z,10.67
2023-02-25T18:26:09.492Z,8.33
2023-02-25T18:28:36.659Z,15.50
2023-02-25T18:31:08.091Z,8.40
2023-02-25T18:33:35.418Z,11.93
2023-02-25T18:36:06.586Z,10.20
2023-02-25T18:38:37.800Z,12.10
2023-02-25T18:41:08.481Z,11.67
2023-02-25T18:43:41.926Z,7.00
2023-02-25T18:46:10.202Z,11.77
2023-02-25T18:48:37.758Z,9.93
2023-02-25T18:51:09.968Z,9.37
2023-02-25T18:53:39.771Z,10.87
2023-02-25T18:56:07.431Z,7.97
2023-02-25T18:58:34.464Z,6.60
2023-02-25T19:01:03.739Z,8.40
2023-02-25T19:03:39.377Z,3.87
2023-02-25T19:06:07.551Z,4.27
2023-02-25T19:08:34.726Z,7.77
2023-02-25T19:11:05.140Z,7.93
2023-02-25T19:13:50.907Z,10.57
2023-02-25T19:16:19.278Z,8.47
2023-02-25T19:18:47.429Z,13.07
2023-02-25T19:21:19.410Z,9.67
2023-02-25T19:23:47.453Z,11.87
2023-02-25T19:26:16.110Z,8.97
2023-02-25T19:28:43.310Z,9.97
2023-02-25T19:31:11.497Z,8.40
2023-02-25T19:33:38.980Z,13.03
2023-02-25T19:36:08.416Z,11.37
2023-02-25T19:38:35.704Z,7.37
2023-02-25T19:41:04.314Z,13.93
2023-02-25T19:43:32.496Z,15.13
2023-02-25T19:45:59.455Z,9.70
2023-02-25T19:48:26.271Z,23.00
2023-02-25T19:50:53.220Z,15.57
2023-02-25T19:53:20.101Z,11.03
2023-02-25T19:55:46.985Z,14.37
2023-02-25T19:58:13.933Z,7.90
2023-02-25T20:00:45.854Z,7.13
2023-02-25T20:03:13.978Z,5.73
2023-02-25T20:05:42.110Z,7.47
2023-02-25T20:08:10.472Z,6.73
2023-02-25T20:10:42.232Z,5.43
2023-02-25T20:13:11.165Z,5.17
2023-02-25T20:15:38.231Z,4.57
2023-02-25T20:18:05.650Z,2.90
2023-02-25T20:20:32.754Z,5.47
2023-02-25T20:22:59.961Z,4.53
2023-02-25T20:25:26.783Z,4.60
2023-02-25T20:27:54.802Z,4.17
2023-02-25T20:30:23.030Z,2.87
2023-02-25T20:32:50.037Z,2.27
2023-02-25T20:35:20.583Z,4.13
2023-02-25T20:38:08.859Z,7.23
2023-02-25T20:40:37.966Z,2.60
2023-02-25T20:43:05.243Z,3.30
2023-02-25T20:45:32.594Z,5.80
2023-02-25T20:48:00.729Z,3.63
2023-02-25T20:50:28.932Z,5.23
2023-02-25T20:52:56.084Z,8.83
2023-02-25T20:55:23.086Z,8.63
2023-02-25T20:57:50.221Z,13.73
2023-02-25T21:00:19.855Z,8.60
2023-02-25T21:02:46.746Z,13.73
2023-02-25T21:05:13.591Z,14.53
2023-02-25T21:07:40.466Z,9.30
2023-02-25T21:10:08.065Z,11.23
2023-02-25T21:12:34.906Z,11.47
2023-02-25T21:15:01.825Z,14.23
2023-02-25T21:17:28.627Z,5.87
2023-02-25T21:19:55.441Z,8.47
2023-02-25T21:22:22.218Z,6.13
2023-02-25T21:24:49.293Z,7.80
2023-02-25T21:27:16.157Z,8.00
2023-02-25T21:29:43.267Z,5.73
2023-02-25T21:32:10.159Z,11.53
2023-02-25T21:34:37.273Z,7.57
2023-02-25T21:37:04.158Z,8.90
2023-02-25T21:39:31.252Z,8.30
2023-02-25T21:41:58.469Z,8.80
2023-02-25T21:44:25.684Z,4.93
2023-02-25T21:46:52.849Z,5.03
2023-02-25T21:49:20.126Z,3.90
2023-02-25T21:51:48.417Z,11.10
2023-02-25T21:54:17.371Z,4.70
2023-02-25T21:56:44.294Z,6.03
2023-02-25T21:59:11.335Z,4.67
2023-02-25T22:01:40.693Z,4.20
2023-02-25T22:04:08.195Z,5.47
2023-02-25T22:06:35.349Z,6.20
2023-02-25T22:09:03.518Z,4.00
2023-02-25T22:11:33.134Z,3.60
2023-02-25T22:14:01.259Z,3.63
2023-02-25T22:16:28.761Z,4.40
2023-02-25T22:18:56.644Z,3.23
2023-02-25T22:21:26.185Z,3.13
2023-02-25T22:23:55.338Z,6.27
2023-02-25T22:26:25.354Z,2.83
2023-02-25T22:29:01.443Z,3.20
2023-02-25T22:31:29.135Z,3.30
2023-02-25T22:33:57.367Z,5.20
2023-02-25T22:36:24.916Z,2.80
2023-02-25T22:38:52.403Z,4.17
2023-02-25T22:41:24.694Z,3.07
2023-02-25T22:43:52.403Z,3.70
2023-02-25T22:46:22.896Z,2.67
2023-02-25T22:48:51.071Z,2.57
2023-02-25T22:51:25.265Z,3.87
2023-02-25T22:53:52.780Z,3.60
2023-02-25T22:56:19.896Z,5.47
2023-02-25T22:58:46.870Z,2.97
2023-02-25T23:01:16.746Z,5.47
2023-02-25T23:03:45.400Z,6.30
2023-02-25T23:06:15.324Z,4.10
2023-02-25T23:08:43.619Z,2.83
2023-02-25T23:11:17.867Z,4.20
2023-02-25T23:13:48.325Z,4.37
2023-02-25T23:16:17.711Z,4.03
2023-02-25T23:18:45.646Z,2.13
2023-02-25T23:21:19.688Z,2.40
2023-02-25T23:23:52.044Z,3.20
2023-02-25T23:26:41.864Z,3.47
2023-02-25T23:29:11.322Z,3.30
2023-02-25T23:31:44.142Z,2.30
2023-02-25T23:34:16.937Z,4.40
2023-02-25T23:36:45.072Z,6.23
2023-02-25T23:39:13.866Z,2.93
2023-02-25T23:41:42.859Z,4.57
2023-02-25T23:44:11.680Z,3.67
2023-02-25T23:46:39.589Z,5.80
2023-02-25T23:49:07.582Z,3.67
2023-02-25T23:51:36.624Z,2.27
2023-02-25T23:54:06.286Z,2.67
2023-02-25T23:56:35.467Z,2.50
2023-02-25T23:59:03.613Z,2.10
